Terminal Aerodrome Forecast
Issued by NWS Shreveport, LA

Home | Current Version | Previous Version | Text Only | Print | Product List | Glossary On
Versions: 1 2 3 4 5 6 7 8 9 10 11 12 13 14 15 16 17 18 19
000
FTUS44 KSHV 271730
TAFSHV
TAF
KSHV 271730Z 2718/2818 10005KT 5SM BR VCSH OVC004
     FM272100 16009KT P6SM VCTS BKN025CB
     FM280000 15008KT P6SM BKN035
     FM280800 18008KT 3SM BR OVC010
     FM281600 19012G20KT P6SM BKN025=

USA.gov is the U.S. government's official web portal to all federal, state and local government web resources and services.